createdAt,value
2023-04-23T00:00:58.661Z,60.57
2023-04-23T00:03:27.413Z,60.56
2023-04-23T00:05:56.745Z,60.88
2023-04-23T00:08:25.990Z,60.66
2023-04-23T00:10:54.846Z,60.73
2023-04-23T00:13:24.440Z,60.85
2023-04-23T00:15:53.128Z,61.06
2023-04-23T00:18:22.116Z,61.44
2023-04-23T00:20:50.186Z,61.49
2023-04-23T00:23:18.815Z,61.39
2023-04-23T00:25:46.972Z,61.79
2023-04-23T00:28:16.421Z,61.82
2023-04-23T00:30:44.939Z,61.76
2023-04-23T00:33:13.105Z,61.79
2023-04-23T00:35:41.179Z,62.00
2023-04-23T00:38:09.442Z,61.80
2023-04-23T00:40:37.733Z,61.76
2023-04-23T00:43:07.391Z,61.88
2023-04-23T00:45:35.700Z,61.71
2023-04-23T00:48:04.123Z,61.78
2023-04-23T00:50:32.392Z,61.76
2023-04-23T00:53:00.548Z,61.74
2023-04-23T00:55:29.430Z,61.65
2023-04-23T00:57:57.625Z,62.13
2023-04-23T01:00:26.320Z,62.24
2023-04-23T01:02:54.925Z,62.31
2023-04-23T01:05:23.165Z,62.26
2023-04-23T01:07:51.533Z,62.17
2023-04-23T01:10:20.009Z,61.99
2023-04-23T01:12:48.422Z,61.98
2023-04-23T01:15:16.888Z,61.95
2023-04-23T01:17:45.345Z,61.84
2023-04-23T01:20:13.937Z,61.81
2023-04-23T01:22:42.430Z,61.93
2023-04-23T01:25:10.650Z,62.00
2023-04-23T01:27:39.612Z,62.23
2023-04-23T01:30:08.896Z,62.12
2023-04-23T01:32:38.103Z,62.22
2023-04-23T01:35:08.050Z,62.30
2023-04-23T01:37:36.684Z,62.60
2023-04-23T01:40:06.183Z,62.63
2023-04-23T01:42:34.364Z,62.32
2023-04-23T01:45:03.150Z,62.50
2023-04-23T01:47:31.643Z,62.56
2023-04-23T01:50:00.011Z,62.78
2023-04-23T01:52:28.076Z,62.76
2023-04-23T01:54:56.248Z,62.87
2023-04-23T01:57:26.712Z,63.11
2023-04-23T01:59:58.327Z,63.32
2023-04-23T02:02:26.478Z,63.81
2023-04-23T02:04:55.094Z,63.96
2023-04-23T02:07:23.155Z,64.25
2023-04-23T02:09:51.922Z,64.37
2023-04-23T02:12:20.734Z,64.33
2023-04-23T02:14:49.012Z,63.99
2023-04-23T02:17:17.144Z,63.70
2023-04-23T02:19:45.566Z,63.33
2023-04-23T02:22:13.736Z,63.33
2023-04-23T02:24:42.562Z,63.76
2023-04-23T02:27:11.012Z,63.76
2023-04-23T02:29:39.231Z,63.94
2023-04-23T02:32:07.336Z,63.78
2023-04-23T02:34:36.045Z,63.67
2023-04-23T02:37:05.341Z,63.00
2023-04-23T02:39:34.541Z,62.71
2023-04-23T02:42:02.919Z,62.36
2023-04-23T02:44:31.672Z,62.54
2023-04-23T02:47:00.456Z,62.78
2023-04-23T02:49:29.012Z,63.10
2023-04-23T02:51:57.024Z,63.28
2023-04-23T02:54:25.630Z,63.56
2023-04-23T02:56:53.802Z,63.60
2023-04-23T02:59:21.871Z,63.52
2023-04-23T03:01:50.108Z,63.63
2023-04-23T03:04:18.545Z,63.63
2023-04-23T03:06:46.801Z,63.70
2023-04-23T03:09:16.822Z,63.47
2023-04-23T03:11:45.196Z,63.40
2023-04-23T03:14:14.306Z,63.41
2023-04-23T03:16:42.674Z,63.15
2023-04-23T03:19:11.149Z,63.19
2023-04-23T03:21:39.323Z,63.16
2023-04-23T03:24:12.616Z,63.03
2023-04-23T03:26:41.300Z,63.00
2023-04-23T03:29:10.821Z,63.06
2023-04-23T03:31:39.392Z,62.56
2023-04-23T03:34:08.904Z,62.24
2023-04-23T03:36:37.500Z,62.48
2023-04-23T03:39:07.271Z,62.30
2023-04-23T03:41:46.219Z,61.87
2023-04-23T03:44:16.135Z,61.35
2023-04-23T03:46:46.402Z,61.49
2023-04-23T03:49:16.885Z,61.73
2023-04-23T03:51:45.672Z,61.61
2023-04-23T03:54:14.057Z,61.66
2023-04-23T03:56:58.609Z,61.99
2023-04-23T03:59:32.414Z,61.80
2023-04-23T04:02:04.393Z,61.24
2023-04-23T04:04:33.746Z,60.94
2023-04-23T04:07:02.177Z,60.86
2023-04-23T04:09:30.421Z,60.97
2023-04-23T04:12:04.374Z,61.55
2023-04-23T04:14:32.718Z,61.37
2023-04-23T04:17:00.892Z,61.10
2023-04-23T04:19:29.607Z,61.07
2023-04-23T04:21:57.762Z,61.19
2023-04-23T04:24:26.375Z,61.24
2023-04-23T04:26:54.720Z,61.29
2023-04-23T04:29:24.223Z,61.57
2023-04-23T04:31:55.722Z,62.40
2023-04-23T04:34:23.970Z,63.01
2023-04-23T04:36:53.980Z,63.23
2023-04-23T04:39:22.051Z,62.53
2023-04-23T04:41:50.204Z,62.59
2023-04-23T04:44:18.438Z,62.56
2023-04-23T04:46:48.210Z,62.16
2023-04-23T04:49:19.600Z,61.80
2023-04-23T04:51:48.272Z,62.18
2023-04-23T04:54:16.384Z,62.11
2023-04-23T04:56:44.697Z,62.34
2023-04-23T04:59:12.843Z,62.05
2023-04-23T05:01:41.444Z,62.28
2023-04-23T05:04:09.708Z,62.48
2023-04-23T05:06:38.066Z,62.90
2023-04-23T05:09:06.349Z,62.84
2023-04-23T05:11:35.977Z,63.54
2023-04-23T05:14:04.774Z,64.02
2023-04-23T05:16:33.583Z,63.57
2023-04-23T05:19:01.724Z,62.94
2023-04-23T05:21:30.201Z,62.58
2023-04-23T05:23:58.381Z,62.49
2023-04-23T05:26:26.703Z,62.00
2023-04-23T05:28:55.559Z,61.68
2023-04-23T05:31:23.644Z,61.37
2023-04-23T05:33:53.138Z,60.67
2023-04-23T05:36:22.020Z,60.04
2023-04-23T05:38:50.081Z,59.83
2023-04-23T05:41:18.284Z,59.45
2023-04-23T05:43:46.275Z,57.85
2023-04-23T05:46:14.402Z,56.10
2023-04-23T05:48:42.666Z,53.95
2023-04-23T05:51:11.245Z,52.91
2023-04-23T05:53:39.618Z,51.19
2023-04-23T05:56:07.794Z,49.97
2023-04-23T05:58:38.932Z,49.93
2023-04-23T06:01:07.209Z,48.77
2023-04-23T06:03:37.149Z,48.27
2023-04-23T06:06:05.710Z,48.52
2023-04-23T06:08:33.861Z,48.91
2023-04-23T06:11:02.259Z,49.66
2023-04-23T06:13:31.355Z,50.16
2023-04-23T06:15:59.769Z,50.32
2023-04-23T06:18:28.435Z,50.87
2023-04-23T06:20:57.426Z,50.55
2023-04-23T06:23:25.888Z,50.24
2023-04-23T06:25:53.967Z,50.08
2023-04-23T06:28:22.454Z,49.26
2023-04-23T06:31:16.864Z,48.64
2023-04-23T06:33:45.089Z,47.90
2023-04-23T06:36:14.922Z,47.19
2023-04-23T06:38:44.749Z,46.84
2023-04-23T06:41:15.484Z,46.88
2023-04-23T06:43:43.674Z,46.80
2023-04-23T06:46:37.695Z,46.04
2023-04-23T06:49:05.952Z,45.32
2023-04-23T06:51:34.676Z,45.42
2023-04-23T06:54:02.906Z,46.23
2023-04-23T06:56:31.229Z,45.81
2023-04-23T06:58:59.408Z,44.20
2023-04-23T07:01:27.891Z,43.49
2023-04-23T07:03:55.967Z,43.63
2023-04-23T07:06:24.349Z,42.62
2023-04-23T07:08:52.724Z,41.41
2023-04-23T07:11:20.817Z,41.22
2023-04-23T07:13:50.014Z,40.95
2023-04-23T07:16:21.121Z,40.92
2023-04-23T07:18:50.441Z,40.78
2023-04-23T07:21:18.618Z,40.76
2023-04-23T07:23:46.646Z,40.95
2023-04-23T07:26:14.866Z,41.49
2023-04-23T07:28:43.038Z,39.21
2023-04-23T07:31:11.328Z,38.21
2023-04-23T07:33:39.387Z,39.61
2023-04-23T07:36:07.570Z,38.99
2023-04-23T07:38:35.802Z,37.66
2023-04-23T07:41:04.113Z,38.59
2023-04-23T07:43:32.294Z,39.69
2023-04-23T07:46:00.604Z,38.92
2023-04-23T07:48:29.557Z,39.04
2023-04-23T07:50:57.694Z,39.41
2023-04-23T07:53:26.427Z,37.66
2023-04-23T07:55:56.687Z,36.37
2023-04-23T07:58:25.122Z,35.69
2023-04-23T08:00:53.293Z,36.24
2023-04-23T08:03:22.352Z,37.61
2023-04-23T08:05:51.209Z,36.12
2023-04-23T08:08:19.454Z,34.89
2023-04-23T08:10:47.628Z,35.78
2023-04-23T08:13:15.874Z,35.08
2023-04-23T08:15:44.020Z,35.92
2023-04-23T08:18:12.465Z,36.43
2023-04-23T08:20:40.624Z,36.67
2023-04-23T08:23:08.797Z,36.08
2023-04-23T08:25:37.072Z,36.59
2023-04-23T08:28:05.362Z,36.16
2023-04-23T08:30:33.536Z,35.92
2023-04-23T08:33:01.688Z,36.07
2023-04-23T08:35:30.053Z,36.50
2023-04-23T08:37:58.236Z,36.31
2023-04-23T08:40:26.728Z,34.89
2023-04-23T08:43:02.517Z,33.78
2023-04-23T08:45:31.049Z,34.71
2023-04-23T08:48:02.209Z,35.39
2023-04-23T08:50:31.716Z,33.72
2023-04-23T08:52:59.995Z,33.61
2023-04-23T08:55:28.258Z,33.97
2023-04-23T08:57:58.323Z,33.25
2023-04-23T09:00:26.551Z,30.59
2023-04-23T09:02:54.971Z,30.58
2023-04-23T09:05:23.192Z,29.32
2023-04-23T09:07:51.268Z,28.86
2023-04-23T09:10:19.343Z,28.54
2023-04-23T09:12:48.299Z,28.64
2023-04-23T09:15:16.814Z,29.01
2023-04-23T09:17:46.507Z,29.29
2023-04-23T09:20:15.065Z,30.26
2023-04-23T09:22:47.127Z,30.52
2023-04-23T09:25:16.857Z,29.60
2023-04-23T09:27:45.189Z,28.96
2023-04-23T09:30:13.669Z,28.91
2023-04-23T09:32:42.534Z,29.13
2023-04-23T09:35:11.247Z,28.98
2023-04-23T09:37:41.884Z,28.63
2023-04-23T09:40:10.662Z,28.94
2023-04-23T09:42:39.675Z,28.57
2023-04-23T09:45:08.345Z,27.57
2023-04-23T09:47:39.917Z,27.26
2023-04-23T09:50:10.740Z,27.86
2023-04-23T09:52:38.994Z,27.40
2023-04-23T09:55:07.400Z,27.22
2023-04-23T09:57:41.850Z,27.26
2023-04-23T10:02:45.986Z,26.06
2023-04-23T10:05:24.889Z,24.45
2023-04-23T10:07:58.064Z,24.40
2023-04-23T10:10:26.118Z,24.97
2023-04-23T10:12:55.883Z,25.68
2023-04-23T10:15:25.852Z,26.28
2023-04-23T10:17:54.585Z,26.05
2023-04-23T10:20:23.108Z,26.04
2023-04-23T10:22:51.168Z,25.18
2023-04-23T10:25:19.305Z,24.52
2023-04-23T10:27:53.768Z,24.73
2023-04-23T10:30:23.220Z,25.39
2023-04-23T10:32:51.844Z,25.64
2023-04-23T10:35:20.213Z,25.95
2023-04-23T10:37:48.401Z,25.19
2023-04-23T10:40:19.149Z,25.55
2023-04-23T10:42:47.631Z,25.56
2023-04-23T10:47:50.128Z,27.12
2023-04-23T10:50:22.856Z,27.38
2023-04-23T10:52:53.737Z,25.40
2023-04-23T10:55:22.690Z,25.45
2023-04-23T10:58:06.771Z,24.39
2023-04-23T11:00:40.930Z,24.60
2023-04-23T11:03:27.584Z,24.37
2023-04-23T11:05:56.080Z,25.05
2023-04-23T11:08:24.554Z,25.71
2023-04-23T11:10:58.667Z,25.35
2023-04-23T11:13:27.152Z,24.88
2023-04-23T11:16:18.614Z,24.07
2023-04-23T11:18:56.804Z,24.40
2023-04-23T11:21:45.020Z,25.00
2023-04-23T11:24:12.957Z,25.68
2023-04-23T11:26:41.587Z,24.62
2023-04-23T11:29:09.742Z,23.98
2023-04-23T11:31:40.793Z,23.63
2023-04-23T11:34:13.100Z,23.11
2023-04-23T11:36:41.033Z,22.92
2023-04-23T11:39:10.605Z,23.43
2023-04-23T11:41:38.651Z,24.20
2023-04-23T11:44:06.794Z,23.85
2023-04-23T11:46:34.832Z,24.15
2023-04-23T11:49:02.918Z,24.37
2023-04-23T11:51:31.408Z,24.36
2023-04-23T11:54:03.088Z,24.55
2023-04-23T11:56:31.624Z,24.87
2023-04-23T11:59:01.349Z,24.78
2023-04-23T12:01:42.692Z,24.14
2023-04-23T12:04:14.871Z,24.35
2023-04-23T12:06:43.992Z,24.48
2023-04-23T12:09:13.093Z,23.74
2023-04-23T12:11:41.649Z,23.65
2023-04-23T12:14:10.003Z,23.67
2023-04-23T12:16:41.907Z,24.12
2023-04-23T12:19:10.605Z,24.36
2023-04-23T12:21:54.756Z,24.56
2023-04-23T12:24:23.762Z,24.25
2023-04-23T12:26:54.559Z,24.70
2023-04-23T12:29:23.111Z,25.23
2023-04-23T12:31:52.467Z,25.52
2023-04-23T12:34:21.319Z,25.83
2023-04-23T12:36:50.140Z,26.00
2023-04-23T12:39:29.522Z,25.96
2023-04-23T12:42:00.254Z,26.80
2023-04-23T12:44:28.698Z,25.52
2023-04-23T12:46:58.012Z,25.47
2023-04-23T12:49:27.300Z,25.59
2023-04-23T12:51:57.798Z,26.04
2023-04-23T12:54:26.700Z,25.98
2023-04-23T12:56:54.774Z,25.34
2023-04-23T12:59:23.054Z,25.13
2023-04-23T13:01:51.484Z,24.98
2023-04-23T13:04:19.496Z,25.41
2023-04-23T13:06:48.090Z,25.85
2023-04-23T13:09:16.373Z,25.79
2023-04-23T13:11:44.392Z,26.11
2023-04-23T13:14:12.305Z,26.28
2023-04-23T13:16:40.408Z,26.07
2023-04-23T13:19:08.449Z,25.67
2023-04-23T13:21:36.408Z,25.75
2023-04-23T13:24:04.628Z,26.15
2023-04-23T13:26:32.995Z,27.36
2023-04-23T13:29:01.366Z,27.41
2023-04-23T13:31:31.603Z,27.45
2023-04-23T13:34:00.061Z,26.63
2023-04-23T13:36:28.042Z,26.81
2023-04-23T13:38:56.301Z,27.34
2023-04-23T13:41:24.255Z,27.36
2023-04-23T13:43:52.925Z,27.29
2023-04-23T13:46:20.906Z,27.22
2023-04-23T13:48:48.996Z,27.38
2023-04-23T13:51:33.348Z,27.39
2023-04-23T13:54:03.259Z,27.51
2023-04-23T13:56:31.661Z,27.51
2023-04-23T13:59:17.596Z,27.32
2023-04-23T14:01:49.827Z,26.93
2023-04-23T14:04:18.773Z,26.77
2023-04-23T14:06:46.952Z,26.90
2023-04-23T14:09:15.332Z,26.70
2023-04-23T14:11:43.508Z,26.93
2023-04-23T14:14:11.462Z,27.43
2023-04-23T14:16:39.636Z,28.09
2023-04-23T14:19:07.829Z,29.15
2023-04-23T14:21:36.417Z,29.34
2023-04-23T14:24:23.853Z,28.94
2023-04-23T14:26:52.004Z,28.19
2023-04-23T14:29:22.997Z,27.64
2023-04-23T14:31:51.423Z,27.79
2023-04-23T14:34:19.610Z,26.96
2023-04-23T14:36:49.290Z,26.56
2023-04-23T14:39:16.557Z,26.41
2023-04-23T14:41:43.431Z,26.47
2023-04-23T14:44:10.274Z,26.71
2023-04-23T14:46:37.468Z,27.11
2023-04-23T14:49:04.643Z,27.33
2023-04-23T14:51:31.489Z,27.71
2023-04-23T14:53:58.430Z,27.57
2023-04-23T14:56:25.795Z,27.40
2023-04-23T14:58:52.575Z,27.43
2023-04-23T15:01:19.483Z,27.93
2023-04-23T15:03:46.902Z,27.98
2023-04-23T15:06:13.975Z,28.20
2023-04-23T15:08:40.844Z,28.28
2023-04-23T15:11:13.330Z,28.18
2023-04-23T15:13:46.491Z,28.34
2023-04-23T15:16:25.698Z,27.89
2023-04-23T15:19:02.327Z,27.88
2023-04-23T15:21:29.531Z,28.23
2023-04-23T15:23:56.574Z,28.34
2023-04-23T15:26:23.854Z,28.16
2023-04-23T15:28:51.043Z,28.31
2023-04-23T15:31:18.087Z,28.83
2023-04-23T15:33:45.010Z,29.21
2023-04-23T15:36:11.875Z,29.29
2023-04-23T15:38:38.656Z,29.00
2023-04-23T15:41:05.715Z,29.21
2023-04-23T15:43:32.546Z,28.95
2023-04-23T15:46:01.629Z,29.03
2023-04-23T15:48:28.605Z,28.82
2023-04-23T15:50:55.694Z,29.46
2023-04-23T15:53:23.206Z,29.36
2023-04-23T15:55:50.628Z,29.36
2023-04-23T15:58:17.940Z,28.85
2023-04-23T16:00:45.026Z,29.04
2023-04-23T16:03:13.244Z,29.42
2023-04-23T16:05:43.585Z,29.00
2023-04-23T16:08:10.808Z,29.03
2023-04-23T16:10:38.050Z,29.28
2023-04-23T16:13:06.208Z,29.58
2023-04-23T16:15:33.133Z,30.11
2023-04-23T16:18:00.321Z,29.51
2023-04-23T16:20:28.542Z,29.40
2023-04-23T16:22:55.695Z,29.42
2023-04-23T16:25:22.481Z,29.13
2023-04-23T16:27:49.435Z,29.31
2023-04-23T16:30:16.580Z,29.38
2023-04-23T16:32:43.488Z,29.36
2023-04-23T16:35:10.699Z,29.39
2023-04-23T16:37:37.511Z,29.38
2023-04-23T16:40:04.717Z,29.41
2023-04-23T16:42:31.531Z,29.54
2023-04-23T16:44:58.466Z,29.59
2023-04-23T16:47:25.251Z,29.85
2023-04-23T16:49:53.160Z,29.84
2023-04-23T16:52:20.118Z,29.90
2023-04-23T16:54:49.509Z,30.11
2023-04-23T16:57:17.196Z,30.18
2023-04-23T16:59:44.237Z,30.29
2023-04-23T17:02:11.406Z,30.35
2023-04-23T17:04:38.799Z,30.51
2023-04-23T17:07:06.009Z,30.45
2023-04-23T17:09:32.879Z,30.34
2023-04-23T17:11:59.776Z,30.45
2023-04-23T17:14:26.921Z,30.53
2023-04-23T17:16:53.870Z,30.58
2023-04-23T17:19:20.708Z,30.69
2023-04-23T17:21:47.488Z,30.76
2023-04-23T17:24:14.408Z,31.22
2023-04-23T17:26:41.272Z,31.66
2023-04-23T17:29:08.291Z,31.92
2023-04-23T17:31:36.932Z,31.65
2023-04-23T17:34:05.328Z,31.43
2023-04-23T17:36:32.197Z,31.46
2023-04-23T17:38:59.043Z,31.54
2023-04-23T17:41:25.929Z,31.49
2023-04-23T17:43:52.821Z,31.39
2023-04-23T17:46:19.949Z,31.41
2023-04-23T17:48:46.994Z,31.35
2023-04-23T17:51:13.757Z,31.49
2023-04-23T17:53:42.256Z,31.50
2023-04-23T17:56:09.204Z,31.41
2023-04-23T17:58:37.570Z,31.53
2023-04-23T18:01:05.293Z,31.71
2023-04-23T18:03:32.497Z,31.73
2023-04-23T18:05:59.628Z,31.73
2023-04-23T18:08:26.593Z,31.73
2023-04-23T18:10:53.618Z,31.80
2023-04-23T18:13:20.531Z,31.93
2023-04-23T18:15:50.296Z,32.08
2023-04-23T18:18:17.637Z,32.04
2023-04-23T18:20:46.384Z,31.96
2023-04-23T18:23:14.319Z,32.00
2023-04-23T18:25:42.206Z,32.13
2023-04-23T18:28:09.203Z,32.24
2023-04-23T18:30:39.170Z,32.21
2023-04-23T18:33:09.117Z,32.33
2023-04-23T18:35:35.863Z,32.37
2023-04-23T18:38:07.927Z,32.59
2023-04-23T18:40:34.825Z,32.53
2023-04-23T18:43:01.607Z,32.63
2023-04-23T18:45:28.382Z,33.20
2023-04-23T18:47:59.519Z,33.35
2023-04-23T18:50:43.146Z,33.41
2023-04-23T18:53:10.088Z,33.39
2023-04-23T18:55:37.227Z,33.24
2023-04-23T18:58:04.373Z,33.08
2023-04-23T19:00:31.649Z,32.90
2023-04-23T19:02:58.605Z,32.76
2023-04-23T19:05:25.792Z,32.84
2023-04-23T19:07:52.888Z,33.13
2023-04-23T19:10:19.815Z,33.68
2023-04-23T19:12:46.758Z,33.67
2023-04-23T19:15:15.077Z,33.95
2023-04-23T19:17:42.007Z,34.03
2023-04-23T19:20:11.090Z,34.01
2023-04-23T19:22:40.021Z,34.79
2023-04-23T19:25:09.376Z,35.21
2023-04-23T19:27:36.451Z,34.78
2023-04-23T19:30:05.029Z,35.08
2023-04-23T19:32:33.817Z,35.20
2023-04-23T19:35:01.097Z,35.40
2023-04-23T19:37:28.394Z,35.40
2023-04-23T19:39:55.101Z,35.59
2023-04-23T19:42:21.993Z,35.90
2023-04-23T19:44:49.737Z,35.43
2023-04-23T19:47:16.999Z,35.17
2023-04-23T19:49:44.515Z,35.11
2023-04-23T19:52:13.237Z,35.24
2023-04-23T19:54:40.080Z,35.62
2023-04-23T19:57:06.839Z,36.00
2023-04-23T19:59:33.735Z,36.28
2023-04-23T20:02:00.640Z,38.40
2023-04-23T20:04:27.517Z,37.92
2023-04-23T20:06:54.365Z,37.33
2023-04-23T20:09:21.880Z,39.45
2023-04-23T20:11:48.800Z,40.60
2023-04-23T20:14:15.540Z,40.53
2023-04-23T20:16:42.306Z,39.41
2023-04-23T20:19:12.323Z,38.86
2023-04-23T20:21:39.370Z,38.68
2023-04-23T20:24:07.461Z,38.39
2023-04-23T20:26:34.869Z,39.36
2023-04-23T20:29:01.711Z,39.81
2023-04-23T20:31:28.691Z,39.80
2023-04-23T20:33:56.317Z,39.08
2023-04-23T20:36:23.674Z,38.93
2023-04-23T20:38:54.240Z,39.34
2023-04-23T20:41:23.004Z,39.66
2023-04-23T20:43:50.672Z,39.20
2023-04-23T20:46:18.563Z,39.61
2023-04-23T20:48:45.568Z,40.79
2023-04-23T20:51:12.301Z,42.05
2023-04-23T20:53:39.150Z,45.33
2023-04-23T20:56:06.320Z,44.91
2023-04-23T20:58:33.144Z,44.57
2023-04-23T21:01:00.343Z,45.87
2023-04-23T21:03:27.800Z,44.45
2023-04-23T21:05:54.898Z,43.11
2023-04-23T21:08:21.954Z,42.54
2023-04-23T21:10:48.893Z,42.28
2023-04-23T21:13:16.426Z,41.49
2023-04-23T21:15:43.377Z,41.25
2023-04-23T21:18:11.492Z,41.89
2023-04-23T21:20:38.374Z,43.11
2023-04-23T21:23:05.249Z,43.60
2023-04-23T21:25:33.529Z,44.34
2023-04-23T21:28:00.368Z,43.43
2023-04-23T21:30:30.382Z,43.86
2023-04-23T21:32:57.282Z,43.66
2023-04-23T21:35:24.281Z,44.10
2023-04-23T21:37:51.000Z,44.51
2023-04-23T21:40:17.769Z,44.23
2023-04-23T21:42:46.452Z,44.18
2023-04-23T21:45:13.389Z,45.12
2023-04-23T21:47:41.203Z,45.31
2023-04-23T21:50:09.971Z,45.16
2023-04-23T21:52:39.752Z,44.67
2023-04-23T21:55:06.800Z,45.04
2023-04-23T21:57:33.520Z,45.31
2023-04-23T22:00:00.483Z,45.21
2023-04-23T22:02:27.431Z,45.14
2023-04-23T22:04:54.471Z,44.96
2023-04-23T22:07:21.333Z,44.64
2023-04-23T22:09:48.166Z,44.53
2023-04-23T22:12:14.934Z,44.46
2023-04-23T22:14:41.845Z,44.70
2023-04-23T22:17:09.356Z,44.47
2023-04-23T22:19:36.251Z,44.28
2023-04-23T22:22:03.082Z,44.46
2023-04-23T22:24:29.897Z,44.62
2023-04-23T22:26:58.115Z,44.88
2023-04-23T22:29:24.903Z,45.55
2023-04-23T22:31:51.690Z,45.74
2023-04-23T22:34:19.587Z,45.84
2023-04-23T22:36:46.414Z,45.97
2023-04-23T22:39:13.636Z,46.30
2023-04-23T22:41:40.560Z,46.63
2023-04-23T22:44:07.459Z,47.33
2023-04-23T22:46:34.320Z,47.74
2023-04-23T22:49:01.388Z,47.83
2023-04-23T22:51:28.470Z,48.18
2023-04-23T22:53:55.315Z,48.78
2023-04-23T22:56:22.044Z,48.96
2023-04-23T22:58:48.880Z,49.33
2023-04-23T23:01:16.951Z,49.86
2023-04-23T23:03:44.081Z,50.16
2023-04-23T23:06:11.584Z,49.29
2023-04-23T23:08:38.319Z,48.64
2023-04-23T23:11:05.265Z,48.49
2023-04-23T23:13:32.226Z,48.79
2023-04-23T23:16:02.492Z,49.65
2023-04-23T23:18:29.348Z,50.37
2023-04-23T23:20:56.097Z,50.87
2023-04-23T23:23:22.886Z,50.35
2023-04-23T23:25:49.665Z,49.96
2023-04-23T23:28:16.486Z,50.86
2023-04-23T23:30:43.396Z,51.39
2023-04-23T23:33:10.238Z,51.32
2023-04-23T23:35:37.093Z,51.52
2023-04-23T23:38:03.905Z,52.39
2023-04-23T23:40:30.793Z,52.65
2023-04-23T23:42:57.627Z,52.87
2023-04-23T23:45:25.176Z,52.87
2023-04-23T23:47:52.348Z,53.45
2023-04-23T23:50:19.453Z,53.89
2023-04-23T23:52:46.511Z,54.15
2023-04-23T23:55:13.308Z,54.28
2023-04-23T23:57:40.099Z,53.98
